sensor_id;sensor_type;location;lat;lon;timestamp;pressure;altitude;pressure_sealevel;temperature;humidity
35023;BME280;21214;44.912;8.204;2023-07-31T00:00:01;99292.50;;;24.98;100.00
35023;BME280;21214;44.912;8.204;2023-07-31T00:02:30;99295.78;;;25.00;100.00
35023;BME280;21214;44.912;8.204;2023-07-31T00:04:55;99298.91;;;24.92;100.00
35023;BME280;21214;44.912;8.204;2023-07-31T00:07:21;99295.13;;;24.93;100.00
35023;BME280;21214;44.912;8.204;2023-07-31T00:09:46;99295.00;;;24.87;100.00
35023;BME280;21214;44.912;8.204;2023-07-31T00:12:11;99295.97;;;24.81;100.00
35023;BME280;21214;44.912;8.204;2023-07-31T00:14:36;99294.31;;;24.80;100.00
35023;BME280;21214;44.912;8.204;2023-07-31T00:17:02;99291.06;;;24.78;100.00
35023;BME280;21214;44.912;8.204;2023-07-31T00:19:27;99291.88;;;24.79;100.00
35023;BME280;21214;44.912;8.204;2023-07-31T00:21:52;99298.47;;;24.71;100.00
35023;BME280;21214;44.912;8.204;2023-07-31T00:24:18;99297.78;;;24.64;100.00
35023;BME280;21214;44.912;8.204;2023-07-31T00:26:43;99294.53;;;24.62;100.00
35023;BME280;21214;44.912;8.204;2023-07-31T00:29:08;99295.50;;;24.56;100.00
35023;BME280;21214;44.912;8.204;2023-07-31T00:31:34;99290.56;;;24.53;100.00
35023;BME280;21214;44.912;8.204;2023-07-31T00:33:59;99294.31;;;24.52;100.00
35023;BME280;21214;44.912;8.204;2023-07-31T00:36:24;99287.75;;;24.48;100.00
35023;BME280;21214;44.912;8.204;2023-07-31T00:38:49;99288.91;;;24.52;100.00
35023;BME280;21214;44.912;8.204;2023-07-31T00:41:15;99290.47;;;24.48;100.00
35023;BME280;21214;44.912;8.204;2023-07-31T00:43:41;99286.59;;;24.44;100.00
35023;BME280;21214;44.912;8.204;2023-07-31T00:46:06;99299.97;;;24.39;100.00
35023;BME280;21214;44.912;8.204;2023-07-31T00:48:32;99303.97;;;24.36;100.00
35023;BME280;21214;44.912;8.204;2023-07-31T00:50:57;99295.53;;;24.33;100.00
35023;BME280;21214;44.912;8.204;2023-07-31T00:53:23;99292.25;;;24.31;100.00
35023;BME280;21214;44.912;8.204;2023-07-31T00:55:50;99298.47;;;24.31;100.00
35023;BME280;21214;44.912;8.204;2023-07-31T00:58:15;99296.00;;;24.30;100.00
35023;BME280;21214;44.912;8.204;2023-07-31T01:00:41;99289.81;;;24.29;100.00
35023;BME280;21214;44.912;8.204;2023-07-31T01:03:06;99300.25;;;24.26;100.00
35023;BME280;21214;44.912;8.204;2023-07-31T01:08:15;99289.94;;;24.23;100.00
35023;BME280;21214;44.912;8.204;2023-07-31T01:10:49;99284.53;;;24.23;100.00
35023;BME280;21214;44.912;8.204;2023-07-31T01:13:17;99288.28;;;24.22;100.00
35023;BME280;21214;44.912;8.204;2023-07-31T01:15:43;99287.00;;;24.24;100.00
35023;BME280;21214;44.912;8.204;2023-07-31T01:18:08;99278.69;;;24.26;100.00
35023;BME280;21214;44.912;8.204;2023-07-31T01:20:35;99288.63;;;24.25;100.00
35023;BME280;21214;44.912;8.204;2023-07-31T01:23:15;99282.56;;;24.18;100.00
35023;BME280;21214;44.912;8.204;2023-07-31T01:26:03;99284.06;;;24.26;100.00
35023;BME280;21214;44.912;8.204;2023-07-31T01:31:17;99278.56;;;24.21;100.00
35023;BME280;21214;44.912;8.204;2023-07-31T01:33:43;99273.03;;;24.16;100.00
35023;BME280;21214;44.912;8.204;2023-07-31T01:36:09;99271.16;;;24.04;100.00
35023;BME280;21214;44.912;8.204;2023-07-31T01:38:35;99272.59;;;23.95;100.00
35023;BME280;21214;44.912;8.204;2023-07-31T01:41:01;99263.22;;;23.86;100.00
35023;BME280;21214;44.912;8.204;2023-07-31T01:43:26;99268.75;;;23.80;100.00
35023;BME280;21214;44.912;8.204;2023-07-31T01:45:51;99269.44;;;23.75;100.00
35023;BME280;21214;44.912;8.204;2023-07-31T01:48:17;99254.91;;;23.64;100.00
35023;BME280;21214;44.912;8.204;2023-07-31T01:50:42;99266.84;;;23.57;100.00
35023;BME280;21214;44.912;8.204;2023-07-31T01:53:07;99265.56;;;23.48;100.00
35023;BME280;21214;44.912;8.204;2023-07-31T01:55:33;99275.34;;;23.31;100.00
35023;BME280;21214;44.912;8.204;2023-07-31T01:57:58;99270.97;;;23.06;100.00
35023;BME280;21214;44.912;8.204;2023-07-31T02:00:23;99277.78;;;23.09;100.00
35023;BME280;21214;44.912;8.204;2023-07-31T02:02:49;99256.59;;;23.12;100.00
35023;BME280;21214;44.912;8.204;2023-07-31T02:05:14;99259.88;;;23.14;100.00
35023;BME280;21214;44.912;8.204;2023-07-31T02:07:39;99267.03;;;23.20;100.00
35023;BME280;21214;44.912;8.204;2023-07-31T02:10:05;99274.19;;;23.26;100.00
35023;BME280;21214;44.912;8.204;2023-07-31T02:12:30;99268.44;;;23.23;100.00
35023;BME280;21214;44.912;8.204;2023-07-31T02:14:57;99278.38;;;23.22;100.00
35023;BME280;21214;44.912;8.204;2023-07-31T02:17:22;99271.81;;;23.18;100.00
35023;BME280;21214;44.912;8.204;2023-07-31T02:19:48;99283.03;;;23.15;100.00
35023;BME280;21214;44.912;8.204;2023-07-31T02:22:13;99272.88;;;23.17;100.00
35023;BME280;21214;44.912;8.204;2023-07-31T02:24:38;99282.88;;;22.99;100.00
35023;BME280;21214;44.912;8.204;2023-07-31T02:27:04;99285.53;;;22.87;100.00
35023;BME280;21214;44.912;8.204;2023-07-31T02:29:29;99287.81;;;22.72;100.00
35023;BME280;21214;44.912;8.204;2023-07-31T02:31:54;99283.13;;;22.49;100.00
35023;BME280;21214;44.912;8.204;2023-07-31T02:34:20;99286.38;;;22.51;100.00
35023;BME280;21214;44.912;8.204;2023-07-31T02:36:45;99296.50;;;22.56;100.00
35023;BME280;21214;44.912;8.204;2023-07-31T02:39:10;99295.81;;;22.60;100.00
35023;BME280;21214;44.912;8.204;2023-07-31T02:41:36;99302.75;;;22.68;100.00
35023;BME280;21214;44.912;8.204;2023-07-31T02:44:01;99294.06;;;22.66;100.00
35023;BME280;21214;44.912;8.204;2023-07-31T02:46:26;99296.63;;;22.61;100.00
35023;BME280;21214;44.912;8.204;2023-07-31T02:48:52;99296.94;;;22.53;100.00
35023;BME280;21214;44.912;8.204;2023-07-31T02:51:17;99297.63;;;22.48;100.00
35023;BME280;21214;44.912;8.204;2023-07-31T02:53:43;99299.78;;;22.39;100.00
35023;BME280;21214;44.912;8.204;2023-07-31T02:56:08;99296.03;;;22.40;100.00
35023;BME280;21214;44.912;8.204;2023-07-31T02:58:33;99295.28;;;22.33;100.00
35023;BME280;21214;44.912;8.204;2023-07-31T03:00:59;99297.41;;;22.31;100.00
35023;BME280;21214;44.912;8.204;2023-07-31T03:03:24;99295.75;;;22.12;100.00
35023;BME280;21214;44.912;8.204;2023-07-31T03:05:49;99300.22;;;22.00;100.00
35023;BME280;21214;44.912;8.204;2023-07-31T03:08:15;99290.16;;;21.71;100.00
35023;BME280;21214;44.912;8.204;2023-07-31T03:10:40;99290.66;;;21.61;100.00
35023;BME280;21214;44.912;8.204;2023-07-31T03:13:05;99292.16;;;21.32;100.00
35023;BME280;21214;44.912;8.204;2023-07-31T03:15:31;99294.72;;;21.14;100.00
35023;BME280;21214;44.912;8.204;2023-07-31T03:17:56;99293.00;;;20.88;100.00
35023;BME280;21214;44.912;8.204;2023-07-31T03:20:21;99295.72;;;20.81;100.00
35023;BME280;21214;44.912;8.204;2023-07-31T03:22:47;99297.19;;;20.84;100.00
35023;BME280;21214;44.912;8.204;2023-07-31T03:25:12;99294.00;;;20.94;100.00
35023;BME280;21214;44.912;8.204;2023-07-31T03:27:37;99298.16;;;20.90;100.00
35023;BME280;21214;44.912;8.204;2023-07-31T03:30:03;99296.06;;;20.92;100.00
35023;BME280;21214;44.912;8.204;2023-07-31T03:32:29;99295.91;;;20.87;100.00
35023;BME280;21214;44.912;8.204;2023-07-31T03:34:54;99308.81;;;21.03;100.00
35023;BME280;21214;44.912;8.204;2023-07-31T03:37:19;99312.47;;;21.15;100.00
35023;BME280;21214;44.912;8.204;2023-07-31T03:39:44;99313.50;;;21.14;100.00
35023;BME280;21214;44.912;8.204;2023-07-31T03:42:10;99308.28;;;21.26;100.00
35023;BME280;21214;44.912;8.204;2023-07-31T03:44:35;99309.88;;;21.33;100.00
35023;BME280;21214;44.912;8.204;2023-07-31T03:47:00;99313.94;;;21.42;100.00
35023;BME280;21214;44.912;8.204;2023-07-31T03:49:26;99312.03;;;21.49;100.00
35023;BME280;21214;44.912;8.204;2023-07-31T03:51:51;99311.75;;;21.57;100.00
35023;BME280;21214;44.912;8.204;2023-07-31T03:54:16;99310.09;;;21.56;100.00
35023;BME280;21214;44.912;8.204;2023-07-31T03:56:42;99318.53;;;21.60;100.00
35023;BME280;21214;44.912;8.204;2023-07-31T03:59:07;99324.06;;;21.65;100.00
35023;BME280;21214;44.912;8.204;2023-07-31T04:01:32;99330.59;;;21.76;100.00
35023;BME280;21214;44.912;8.204;2023-07-31T04:03:58;99331.56;;;21.81;100.00
35023;BME280;21214;44.912;8.204;2023-07-31T04:06:23;99340.50;;;21.75;100.00
35023;BME280;21214;44.912;8.204;2023-07-31T04:08:48;99351.19;;;21.82;100.00
35023;BME280;21214;44.912;8.204;2023-07-31T04:11:14;99347.09;;;21.79;100.00
35023;BME280;21214;44.912;8.204;2023-07-31T04:13:39;99356.56;;;21.82;100.00
35023;BME280;21214;44.912;8.204;2023-07-31T04:16:05;99346.75;;;21.69;100.00
35023;BME280;21214;44.912;8.204;2023-07-31T04:18:31;99349.38;;;21.76;100.00
35023;BME280;21214;44.912;8.204;2023-07-31T04:20:57;99352.91;;;21.76;100.00
35023;BME280;21214;44.912;8.204;2023-07-31T04:23:26;99352.47;;;21.79;100.00
35023;BME280;21214;44.912;8.204;2023-07-31T04:25:51;99354.50;;;21.84;100.00
35023;BME280;21214;44.912;8.204;2023-07-31T04:28:17;99355.31;;;21.84;100.00
35023;BME280;21214;44.912;8.204;2023-07-31T04:30:42;99356.16;;;21.85;100.00
35023;BME280;21214;44.912;8.204;2023-07-31T04:33:07;99357.38;;;21.82;100.00
35023;BME280;21214;44.912;8.204;2023-07-31T04:35:33;99342.09;;;21.83;100.00
35023;BME280;21214;44.912;8.204;2023-07-31T04:37:58;99350.00;;;21.78;100.00
35023;BME280;21214;44.912;8.204;2023-07-31T04:40:23;99357.03;;;21.79;100.00
35023;BME280;21214;44.912;8.204;2023-07-31T04:42:49;99347.88;;;21.61;100.00
35023;BME280;21214;44.912;8.204;2023-07-31T04:45:14;99348.38;;;21.45;100.00
35023;BME280;21214;44.912;8.204;2023-07-31T04:47:39;99361.06;;;21.38;100.00
35023;BME280;21214;44.912;8.204;2023-07-31T04:50:05;99360.94;;;21.51;100.00
35023;BME280;21214;44.912;8.204;2023-07-31T04:52:30;99360.84;;;21.64;100.00
35023;BME280;21214;44.912;8.204;2023-07-31T04:54:56;99362.81;;;21.76;100.00
35023;BME280;21214;44.912;8.204;2023-07-31T04:57:21;99363.44;;;21.78;100.00
35023;BME280;21214;44.912;8.204;2023-07-31T04:59:46;99372.84;;;21.87;100.00
35023;BME280;21214;44.912;8.204;2023-07-31T05:02:12;99368.44;;;21.99;100.00
35023;BME280;21214;44.912;8.204;2023-07-31T05:04:38;99382.84;;;22.04;100.00
35023;BME280;21214;44.912;8.204;2023-07-31T05:07:03;99388.16;;;22.11;100.00
35023;BME280;21214;44.912;8.204;2023-07-31T05:09:29;99393.47;;;22.18;100.00
35023;BME280;21214;44.912;8.204;2023-07-31T05:11:54;99403.41;;;22.17;100.00
35023;BME280;21214;44.912;8.204;2023-07-31T05:14:19;99405.06;;;22.18;100.00
35023;BME280;21214;44.912;8.204;2023-07-31T05:16:45;99407.75;;;22.18;100.00
35023;BME280;21214;44.912;8.204;2023-07-31T05:19:10;99410.84;;;22.15;100.00
35023;BME280;21214;44.912;8.204;2023-07-31T05:21:36;99413.84;;;22.07;100.00
35023;BME280;21214;44.912;8.204;2023-07-31T05:24:01;99415.38;;;21.96;100.00
35023;BME280;21214;44.912;8.204;2023-07-31T05:26:26;99409.69;;;21.80;100.00
35023;BME280;21214;44.912;8.204;2023-07-31T05:28:52;99403.19;;;21.62;100.00
35023;BME280;21214;44.912;8.204;2023-07-31T05:31:17;99414.63;;;21.51;100.00
35023;BME280;21214;44.912;8.204;2023-07-31T05:33:42;99421.25;;;21.55;100.00
35023;BME280;21214;44.912;8.204;2023-07-31T05:36:08;99411.09;;;21.57;100.00
35023;BME280;21214;44.912;8.204;2023-07-31T05:38:33;99422.78;;;21.70;100.00
35023;BME280;21214;44.912;8.204;2023-07-31T05:40:59;99418.56;;;21.80;100.00
35023;BME280;21214;44.912;8.204;2023-07-31T05:43:24;99416.44;;;21.89;100.00
35023;BME280;21214;44.912;8.204;2023-07-31T05:45:50;99415.53;;;22.01;100.00
35023;BME280;21214;44.912;8.204;2023-07-31T05:48:16;99411.31;;;22.12;100.00
35023;BME280;21214;44.912;8.204;2023-07-31T05:50:42;99416.41;;;22.20;100.00
35023;BME280;21214;44.912;8.204;2023-07-31T05:53:07;99424.38;;;22.27;100.00
35023;BME280;21214;44.912;8.204;2023-07-31T05:55:33;99427.91;;;22.27;100.00
35023;BME280;21214;44.912;8.204;2023-07-31T05:57:59;99422.25;;;22.35;100.00
35023;BME280;21214;44.912;8.204;2023-07-31T06:00:24;99432.38;;;22.33;100.00
35023;BME280;21214;44.912;8.204;2023-07-31T06:02:49;99424.72;;;22.37;100.00
35023;BME280;21214;44.912;8.204;2023-07-31T06:05:15;99425.97;;;22.34;100.00
35023;BME280;21214;44.912;8.204;2023-07-31T06:07:40;99411.38;;;22.49;100.00
35023;BME280;21214;44.912;8.204;2023-07-31T06:10:06;99416.00;;;22.60;100.00
35023;BME280;21214;44.912;8.204;2023-07-31T06:12:32;99415.25;;;22.71;100.00
35023;BME280;21214;44.912;8.204;2023-07-31T06:14:57;99417.44;;;22.80;100.00
35023;BME280;21214;44.912;8.204;2023-07-31T06:17:22;99410.94;;;22.88;100.00
35023;BME280;21214;44.912;8.204;2023-07-31T06:19:48;99404.66;;;22.94;100.00
35023;BME280;21214;44.912;8.204;2023-07-31T06:22:13;99397.47;;;23.06;100.00
35023;BME280;21214;44.912;8.204;2023-07-31T06:24:38;99401.94;;;23.12;100.00
35023;BME280;21214;44.912;8.204;2023-07-31T06:30:32;99409.06;;;23.37;100.00
35023;BME280;21214;44.912;8.204;2023-07-31T06:32:57;99402.97;;;23.41;100.00
35023;BME280;21214;44.912;8.204;2023-07-31T06:35:23;99415.91;;;23.51;100.00
35023;BME280;21214;44.912;8.204;2023-07-31T06:37:48;99424.50;;;23.59;100.00
35023;BME280;21214;44.912;8.204;2023-07-31T06:40:13;99427.91;;;23.66;100.00
35023;BME280;21214;44.912;8.204;2023-07-31T06:42:39;99434.25;;;23.72;100.00
35023;BME280;21214;44.912;8.204;2023-07-31T06:45:04;99432.50;;;23.78;100.00
35023;BME280;21214;44.912;8.204;2023-07-31T06:47:31;99441.19;;;23.80;100.00
35023;BME280;21214;44.912;8.204;2023-07-31T06:49:57;99440.72;;;23.83;100.00
35023;BME280;21214;44.912;8.204;2023-07-31T06:52:22;99452.75;;;23.80;100.00
35023;BME280;21214;44.912;8.204;2023-07-31T06:55:00;99455.47;;;23.92;100.00
35023;BME280;21214;44.912;8.204;2023-07-31T06:57:25;99451.06;;;23.97;100.00
35023;BME280;21214;44.912;8.204;2023-07-31T06:59:51;99450.91;;;23.92;100.00
35023;BME280;21214;44.912;8.204;2023-07-31T07:02:16;99447.28;;;23.98;100.00
35023;BME280;21214;44.912;8.204;2023-07-31T07:04:41;99432.88;;;24.04;100.00
35023;BME280;21214;44.912;8.204;2023-07-31T07:07:07;99443.22;;;23.96;100.00
35023;BME280;21214;44.912;8.204;2023-07-31T07:09:32;99439.53;;;23.79;100.00
35023;BME280;21214;44.912;8.204;2023-07-31T07:11:58;99453.97;;;23.84;100.00
35023;BME280;21214;44.912;8.204;2023-07-31T07:14:23;99447.66;;;23.90;100.00
35023;BME280;21214;44.912;8.204;2023-07-31T07:16:50;99455.88;;;23.95;100.00
35023;BME280;21214;44.912;8.204;2023-07-31T07:19:16;99437.47;;;24.04;100.00
35023;BME280;21214;44.912;8.204;2023-07-31T07:21:41;99440.66;;;24.13;100.00
35023;BME280;21214;44.912;8.204;2023-07-31T07:24:07;99436.91;;;24.14;100.00
35023;BME280;21214;44.912;8.204;2023-07-31T07:26:32;99445.25;;;24.24;100.00
35023;BME280;21214;44.912;8.204;2023-07-31T07:28:57;99449.22;;;24.33;100.00
35023;BME280;21214;44.912;8.204;2023-07-31T07:31:23;99452.19;;;24.43;100.00
35023;BME280;21214;44.912;8.204;2023-07-31T07:33:48;99455.00;;;24.48;100.00
35023;BME280;21214;44.912;8.204;2023-07-31T07:36:14;99454.75;;;24.61;100.00
35023;BME280;21214;44.912;8.204;2023-07-31T07:38:39;99448.41;;;24.67;100.00
35023;BME280;21214;44.912;8.204;2023-07-31T07:41:06;99445.72;;;24.67;100.00
35023;BME280;21214;44.912;8.204;2023-07-31T07:43:31;99436.69;;;24.73;100.00
35023;BME280;21214;44.912;8.204;2023-07-31T07:45:57;99440.75;;;24.76;100.00
35023;BME280;21214;44.912;8.204;2023-07-31T07:48:22;99439.50;;;24.90;100.00
35023;BME280;21214;44.912;8.204;2023-07-31T07:50:48;99446.63;;;24.96;100.00
35023;BME280;21214;44.912;8.204;2023-07-31T07:53:14;99447.09;;;24.93;100.00
35023;BME280;21214;44.912;8.204;2023-07-31T07:55:40;99436.78;;;24.90;100.00
35023;BME280;21214;44.912;8.204;2023-07-31T07:58:07;99442.53;;;24.94;100.00
35023;BME280;21214;44.912;8.204;2023-07-31T08:00:33;99448.84;;;24.99;100.00
35023;BME280;21214;44.912;8.204;2023-07-31T08:02:58;99448.50;;;24.96;100.00
35023;BME280;21214;44.912;8.204;2023-07-31T08:05:24;99453.81;;;24.91;100.00
35023;BME280;21214;44.912;8.204;2023-07-31T08:07:50;99451.09;;;24.91;100.00
35023;BME280;21214;44.912;8.204;2023-07-31T08:10:15;99447.91;;;24.94;100.00
35023;BME280;21214;44.912;8.204;2023-07-31T08:12:40;99444.16;;;24.95;100.00
35023;BME280;21214;44.912;8.204;2023-07-31T08:15:06;99444.50;;;24.98;100.00
35023;BME280;21214;44.912;8.204;2023-07-31T08:17:32;99453.50;;;25.04;100.00
35023;BME280;21214;44.912;8.204;2023-07-31T08:19:57;99459.59;;;25.11;100.00
35023;BME280;21214;44.912;8.204;2023-07-31T08:22:23;99456.53;;;25.19;100.00
35023;BME280;21214;44.912;8.204;2023-07-31T08:24:49;99451.81;;;25.26;100.00
35023;BME280;21214;44.912;8.204;2023-07-31T08:27:14;99454.63;;;25.31;100.00
35023;BME280;21214;44.912;8.204;2023-07-31T08:29:40;99448.25;;;25.37;100.00
35023;BME280;21214;44.912;8.204;2023-07-31T08:32:05;99450.97;;;25.37;100.00
35023;BME280;21214;44.912;8.204;2023-07-31T08:34:31;99452.59;;;25.38;100.00
35023;BME280;21214;44.912;8.204;2023-07-31T08:36:56;99451.53;;;25.39;100.00
35023;BME280;21214;44.912;8.204;2023-07-31T08:39:22;99442.84;;;25.37;100.00
35023;BME280;21214;44.912;8.204;2023-07-31T08:41:47;99442.34;;;25.40;100.00
35023;BME280;21214;44.912;8.204;2023-07-31T08:44:13;99441.91;;;25.43;100.00
35023;BME280;21214;44.912;8.204;2023-07-31T08:46:39;99436.09;;;25.51;100.00
35023;BME280;21214;44.912;8.204;2023-07-31T08:49:05;99433.72;;;25.55;100.00
35023;BME280;21214;44.912;8.204;2023-07-31T08:51:34;99433.03;;;25.59;100.00
35023;BME280;21214;44.912;8.204;2023-07-31T08:54:00;99432.44;;;25.57;100.00
35023;BME280;21214;44.912;8.204;2023-07-31T08:56:26;99423.75;;;25.55;100.00
35023;BME280;21214;44.912;8.204;2023-07-31T08:58:52;99427.03;;;25.57;100.00
35023;BME280;21214;44.912;8.204;2023-07-31T09:01:18;99426.56;;;25.60;100.00
35023;BME280;21214;44.912;8.204;2023-07-31T09:03:44;99432.06;;;25.65;100.00
35023;BME280;21214;44.912;8.204;2023-07-31T09:06:10;99440.00;;;25.72;100.00
35023;BME280;21214;44.912;8.204;2023-07-31T09:08:36;99427.72;;;25.64;100.00
35023;BME280;21214;44.912;8.204;2023-07-31T09:11:06;99431.16;;;25.60;100.00
35023;BME280;21214;44.912;8.204;2023-07-31T09:13:32;99431.00;;;25.66;100.00
35023;BME280;21214;44.912;8.204;2023-07-31T09:15:58;99423.94;;;25.65;100.00
35023;BME280;21214;44.912;8.204;2023-07-31T09:18:24;99426.72;;;25.71;100.00
35023;BME280;21214;44.912;8.204;2023-07-31T09:21:02;99429.03;;;25.62;100.00
35023;BME280;21214;44.912;8.204;2023-07-31T09:23:39;99426.41;;;25.67;100.00
35023;BME280;21214;44.912;8.204;2023-07-31T09:26:05;99430.03;;;25.73;100.00
35023;BME280;21214;44.912;8.204;2023-07-31T09:28:31;99428.69;;;25.75;100.00
35023;BME280;21214;44.912;8.204;2023-07-31T09:30:56;99426.72;;;25.71;100.00
35023;BME280;21214;44.912;8.204;2023-07-31T09:33:22;99420.34;;;25.77;100.00
35023;BME280;21214;44.912;8.204;2023-07-31T09:35:47;99425.59;;;25.66;100.00
35023;BME280;21214;44.912;8.204;2023-07-31T09:38:16;99418.78;;;25.64;100.00
35023;BME280;21214;44.912;8.204;2023-07-31T09:40:42;99423.28;;;25.58;100.00
35023;BME280;21214;44.912;8.204;2023-07-31T09:43:09;99412.31;;;25.65;100.00
35023;BME280;21214;44.912;8.204;2023-07-31T09:45:40;99422.97;;;25.72;100.00
35023;BME280;21214;44.912;8.204;2023-07-31T09:48:09;99416.59;;;25.78;100.00
35023;BME280;21214;44.912;8.204;2023-07-31T09:50:36;99415.94;;;25.87;100.00
35023;BME280;21214;44.912;8.204;2023-07-31T09:53:02;99415.47;;;25.90;100.00
35023;BME280;21214;44.912;8.204;2023-07-31T09:55:27;99409.81;;;25.92;100.00
35023;BME280;21214;44.912;8.204;2023-07-31T09:57:54;99398.56;;;26.00;100.00
35023;BME280;21214;44.912;8.204;2023-07-31T10:00:21;99399.56;;;25.94;100.00
35023;BME280;21214;44.912;8.204;2023-07-31T10:02:50;99395.88;;;26.00;100.00
35023;BME280;21214;44.912;8.204;2023-07-31T10:05:16;99397.91;;;26.09;100.00
35023;BME280;21214;44.912;8.204;2023-07-31T10:07:43;99399.94;;;26.19;100.00
35023;BME280;21214;44.912;8.204;2023-07-31T10:10:08;99393.34;;;26.27;100.00
35023;BME280;21214;44.912;8.204;2023-07-31T10:12:34;99387.72;;;26.33;100.00
35023;BME280;21214;44.912;8.204;2023-07-31T10:15:01;99390.94;;;26.30;100.00
35023;BME280;21214;44.912;8.204;2023-07-31T10:17:26;99390.53;;;26.38;100.00
35023;BME280;21214;44.912;8.204;2023-07-31T10:19:55;99380.31;;;26.45;100.00
35023;BME280;21214;44.912;8.204;2023-07-31T10:22:21;99380.47;;;26.56;100.00
35023;BME280;21214;44.912;8.204;2023-07-31T10:24:47;99378.38;;;26.63;100.00
35023;BME280;21214;44.912;8.204;2023-07-31T10:27:13;99370.91;;;26.70;100.00
35023;BME280;21214;44.912;8.204;2023-07-31T10:29:39;99371.53;;;26.77;100.00
35023;BME280;21214;44.912;8.204;2023-07-31T10:32:06;99372.66;;;26.81;100.00
35023;BME280;21214;44.912;8.204;2023-07-31T10:34:35;99372.47;;;26.87;100.00
35023;BME280;21214;44.912;8.204;2023-07-31T10:42:34;99354.28;;;27.05;100.00
35023;BME280;21214;44.912;8.204;2023-07-31T10:45:01;99349.25;;;27.13;100.00
35023;BME280;21214;44.912;8.204;2023-07-31T10:47:27;99346.56;;;27.18;100.00
35023;BME280;21214;44.912;8.204;2023-07-31T10:49:52;99342.28;;;27.22;100.00
35023;BME280;21214;44.912;8.204;2023-07-31T10:52:21;99340.97;;;27.25;100.00
35023;BME280;21214;44.912;8.204;2023-07-31T10:55:13;99344.00;;;27.34;100.00
35023;BME280;21214;44.912;8.204;2023-07-31T10:57:37;99337.88;;;27.43;100.00
35023;BME280;21214;44.912;8.204;2023-07-31T11:02:43;99343.19;;;27.60;100.00
35023;BME280;21214;44.912;8.204;2023-07-31T11:05:20;99337.03;;;27.69;100.00
35023;BME280;21214;44.912;8.204;2023-07-31T11:07:48;99338.47;;;27.77;100.00
35023;BME280;21214;44.912;8.204;2023-07-31T11:10:16;99335.28;;;27.85;100.00
35023;BME280;21214;44.912;8.204;2023-07-31T11:12:41;99335.31;;;27.90;100.00
35023;BME280;21214;44.912;8.204;2023-07-31T11:15:07;99326.13;;;27.96;100.00
35023;BME280;21214;44.912;8.204;2023-07-31T11:17:32;99329.44;;;28.03;100.00
35023;BME280;21214;44.912;8.204;2023-07-31T11:19:57;99320.31;;;28.15;100.00
35023;BME280;21214;44.912;8.204;2023-07-31T11:22:23;99316.78;;;28.19;100.00
35023;BME280;21214;44.912;8.204;2023-07-31T11:24:48;99320.06;;;28.21;100.00
35023;BME280;21214;44.912;8.204;2023-07-31T11:27:14;99318.94;;;28.17;100.00
35023;BME280;21214;44.912;8.204;2023-07-31T11:29:39;99317.66;;;28.30;100.00
35023;BME280;21214;44.912;8.204;2023-07-31T11:32:05;99299.53;;;28.40;100.00
35023;BME280;21214;44.912;8.204;2023-07-31T11:34:31;99313.41;;;28.49;100.00
35023;BME280;21214;44.912;8.204;2023-07-31T11:36:56;99314.50;;;28.53;100.00
35023;BME280;21214;44.912;8.204;2023-07-31T11:39:22;99314.00;;;28.56;100.00
35023;BME280;21214;44.912;8.204;2023-07-31T11:41:47;99313.16;;;28.56;100.00
35023;BME280;21214;44.912;8.204;2023-07-31T11:44:13;99311.53;;;28.55;100.00
35023;BME280;21214;44.912;8.204;2023-07-31T11:46:38;99306.94;;;28.55;100.00
35023;BME280;21214;44.912;8.204;2023-07-31T11:49:04;99299.03;;;28.54;100.00
35023;BME280;21214;44.912;8.204;2023-07-31T11:51:31;99305.84;;;28.51;100.00
35023;BME280;21214;44.912;8.204;2023-07-31T11:53:57;99297.69;;;28.51;100.00
35023;BME280;21214;44.912;8.204;2023-07-31T11:56:24;99300.66;;;28.44;100.00
35023;BME280;21214;44.912;8.204;2023-07-31T11:58:52;99301.41;;;28.40;100.00
35023;BME280;21214;44.912;8.204;2023-07-31T12:01:19;99301.41;;;28.40;100.00
35023;BME280;21214;44.912;8.204;2023-07-31T12:03:45;99288.97;;;28.44;100.00
35023;BME280;21214;44.912;8.204;2023-07-31T12:06:11;99287.09;;;28.49;100.00
35023;BME280;21214;44.912;8.204;2023-07-31T12:08:37;99283.81;;;28.52;100.00
35023;BME280;21214;44.912;8.204;2023-07-31T12:11:03;99285.22;;;28.55;100.00
35023;BME280;21214;44.912;8.204;2023-07-31T12:13:28;99276.00;;;28.56;100.00
35023;BME280;21214;44.912;8.204;2023-07-31T12:15:56;99276.50;;;28.58;100.00
35023;BME280;21214;44.912;8.204;2023-07-31T12:18:23;99263.50;;;28.60;100.00
35023;BME280;21214;44.912;8.204;2023-07-31T12:20:49;99259.16;;;28.69;100.00
35023;BME280;21214;44.912;8.204;2023-07-31T12:23:20;99249.50;;;29.04;100.00
35023;BME280;21214;44.912;8.204;2023-07-31T12:31:03;99245.16;;;29.68;100.00
35023;BME280;21214;44.912;8.204;2023-07-31T12:33:34;99238.59;;;29.69;100.00
35023;BME280;21214;44.912;8.204;2023-07-31T12:36:03;99229.03;;;29.87;100.00
35023;BME280;21214;44.912;8.204;2023-07-31T12:38:29;99231.97;;;30.21;100.00
35023;BME280;21214;44.912;8.204;2023-07-31T12:40:55;99226.38;;;30.46;100.00
35023;BME280;21214;44.912;8.204;2023-07-31T12:43:21;99224.16;;;30.59;100.00
35023;BME280;21214;44.912;8.204;2023-07-31T12:45:46;99221.03;;;30.85;100.00
35023;BME280;21214;44.912;8.204;2023-07-31T12:48:12;99227.19;;;30.96;100.00
35023;BME280;21214;44.912;8.204;2023-07-31T12:50:38;99216.81;;;31.03;98.88
35023;BME280;21214;44.912;8.204;2023-07-31T12:53:04;99208.41;;;31.28;98.19
35023;BME280;21214;44.912;8.204;2023-07-31T12:55:30;99197.91;;;31.46;96.78
35023;BME280;21214;44.912;8.204;2023-07-31T12:57:55;99203.31;;;31.51;95.59
35023;BME280;21214;44.912;8.204;2023-07-31T13:00:21;99203.81;;;31.53;96.32
35023;BME280;21214;44.912;8.204;2023-07-31T13:02:47;99197.59;;;31.76;95.16
35023;BME280;21214;44.912;8.204;2023-07-31T13:05:12;99203.06;;;32.00;92.69